Lake Cumberland Regional Airport
KSME : now visible

Airfield :











YOU CAN JOIN US ON...

 
LOGIN :

Register | Disclaimer

   EN    FR    IT 

 









Legend :    VFR   Marginal VFR   IFR   Intensive IFR   Very Intensive IFR
Visi :
Ceiling :
>= 8 km
>= 3000ft
5 to 8 km
1000 to 3000 ft
1500m to 5 km
500 to 1000 ft
800 to 1500m
200 to 500 ft
< 800m
< 200 ft
Symbols :   Thunderstorms  Fog  Heavy snow  Heavy precipitations  Wind > 20 kt






- Airport Elevation : 927 ft


KSME - Lake Cumberland Regional

CURRENT METAR :
  • 222157Z AUTO 27007KT 10SM BKN050 22/M01 A3003 RMK AO2

EXPIRED METARs :
  • 222137Z AUTO 29004KT 10SM SCT050 22/00 A3002 RMK AO2
  • 222117Z AUTO 32005KT 10SM SCT050 22/01 A3002 RMK AO2
  • 222057Z AUTO 35008KT 10SM BKN050 22/01 A3002 RMK AO2
  • 222037Z AUTO 30006KT 10SM SCT050 22/01 A3002 RMK AO2
  • 222017Z AUTO 34008KT 10SM SCT050 22/01 A3002 RMK AO2
  • 221957Z AUTO 01003KT 10SM SCT050 22/02 A3002 RMK AO2
  • 221937Z AUTO 32006KT 10SM SCT050 SCT060 22/01 A3002 RMK AO2
  • 221917Z AUTO 33007G16KT 10SM SCT055 21/01 A3002 RMK AO2

TAF KSME
Valid from the 22 at 18:00 until the 23 at 18:00 UTC


221727Z 2218/2318 33007KT P6SM FEW070
FM222100 35006KT P6SM FEW200
FM230500 VRB03KT 5SM BR SKC
FM231100 VRB03KT P6SM FEW250
KZID FIR / North America



MET'MAP, your aeronautical weather chart ! - Copyright ORBIFLY December 2007 - Disclaimer

ORBIFLY MET'MAP TEAM :

Programming & Development : Alexandra Zaïnal
Concept & original design : Baudouin d'Aumeries
Assistance for programming : Marc-Olivier Méhu
Technical & hardware support : Manuel Goepfert

Contact : metmap@orbifly.com




SOURCES & CREDITS :

   NOAA       Earth
Advisory